sensor_id;sensor_type;location;lat;lon;timestamp;pressure;altitude;pressure_sealevel;temperature;humidity
38912;BME280;28444;48.056;14.408;2022-10-18T00:02:16;98625.91;;;10.73;100.00
38912;BME280;28444;48.056;14.408;2022-10-18T00:04:43;98620.59;;;10.68;100.00
38912;BME280;28444;48.056;14.408;2022-10-18T00:07:09;98622.03;;;10.61;100.00
38912;BME280;28444;48.056;14.408;2022-10-18T00:09:36;98621.22;;;10.53;100.00
38912;BME280;28444;48.056;14.408;2022-10-18T00:12:03;98622.16;;;10.55;100.00
38912;BME280;28444;48.056;14.408;2022-10-18T00:14:30;98622.66;;;10.46;100.00
38912;BME280;28444;48.056;14.408;2022-10-18T00:16:57;98617.13;;;10.39;100.00
38912;BME280;28444;48.056;14.408;2022-10-18T00:19:23;98628.97;;;10.41;100.00
38912;BME280;28444;48.056;14.408;2022-10-18T00:21:54;98630.97;;;10.41;100.00
38912;BME280;28444;48.056;14.408;2022-10-18T00:24:21;98633.19;;;10.42;100.00
38912;BME280;28444;48.056;14.408;2022-10-18T00:26:48;98632.78;;;10.38;100.00
38912;BME280;28444;48.056;14.408;2022-10-18T00:29:14;98634.38;;;10.33;100.00
38912;BME280;28444;48.056;14.408;2022-10-18T00:31:42;98641.72;;;10.39;100.00
38912;BME280;28444;48.056;14.408;2022-10-18T00:34:12;98641.66;;;10.31;100.00
38912;BME280;28444;48.056;14.408;2022-10-18T00:36:40;98645.78;;;10.24;100.00
38912;BME280;28444;48.056;14.408;2022-10-18T00:39:08;98632.63;;;10.23;100.00
38912;BME280;28444;48.056;14.408;2022-10-18T00:41:38;98637.16;;;10.20;100.00
38912;BME280;28444;48.056;14.408;2022-10-18T00:46:39;98629.66;;;10.13;100.00
38912;BME280;28444;48.056;14.408;2022-10-18T00:49:13;98623.75;;;10.09;100.00
38912;BME280;28444;48.056;14.408;2022-10-18T00:51:47;98619.78;;;10.10;100.00
38912;BME280;28444;48.056;14.408;2022-10-18T00:54:16;98629.03;;;10.07;100.00
38912;BME280;28444;48.056;14.408;2022-10-18T00:56:44;98620.44;;;10.03;100.00
38912;BME280;28444;48.056;14.408;2022-10-18T00:59:16;98622.03;;;9.98;100.00
38912;BME280;28444;48.056;14.408;2022-10-18T01:01:44;98616.22;;;10.02;100.00
38912;BME280;28444;48.056;14.408;2022-10-18T01:04:14;98613.50;;;10.02;100.00
38912;BME280;28444;48.056;14.408;2022-10-18T01:12:56;98615.88;;;10.05;100.00
38912;BME280;28444;48.056;14.408;2022-10-18T01:15:40;98613.97;;;10.13;100.00
38912;BME280;28444;48.056;14.408;2022-10-18T01:19:04;98611.03;;;10.11;100.00
38912;BME280;28444;48.056;14.408;2022-10-18T01:30:55;98599.00;;;10.28;100.00
38912;BME280;28444;48.056;14.408;2022-10-18T01:33:24;98594.78;;;10.27;100.00
38912;BME280;28444;48.056;14.408;2022-10-18T01:36:16;98598.25;;;10.27;100.00
38912;BME280;28444;48.056;14.408;2022-10-18T01:38:46;98594.34;;;10.23;100.00
38912;BME280;28444;48.056;14.408;2022-10-18T01:41:15;98596.25;;;10.28;100.00
38912;BME280;28444;48.056;14.408;2022-10-18T01:43:45;98585.00;;;10.31;100.00
38912;BME280;28444;48.056;14.408;2022-10-18T01:46:18;98582.25;;;10.31;100.00
38912;BME280;28444;48.056;14.408;2022-10-18T01:48:46;98580.59;;;10.28;100.00
38912;BME280;28444;48.056;14.408;2022-10-18T01:51:13;98572.56;;;10.30;100.00
38912;BME280;28444;48.056;14.408;2022-10-18T01:53:40;98566.59;;;10.32;100.00
38912;BME280;28444;48.056;14.408;2022-10-18T01:56:35;98577.31;;;10.30;100.00
38912;BME280;28444;48.056;14.408;2022-10-18T01:59:29;98583.16;;;10.34;100.00
38912;BME280;28444;48.056;14.408;2022-10-18T02:05:12;98584.16;;;10.23;100.00
38912;BME280;28444;48.056;14.408;2022-10-18T02:07:48;98582.63;;;10.15;100.00
38912;BME280;28444;48.056;14.408;2022-10-18T02:10:40;98579.34;;;10.16;100.00
38912;BME280;28444;48.056;14.408;2022-10-18T02:13:10;98584.16;;;10.23;100.00
38912;BME280;28444;48.056;14.408;2022-10-18T02:15:40;98589.22;;;10.19;100.00
38912;BME280;28444;48.056;14.408;2022-10-18T02:18:18;98588.84;;;10.15;100.00
38912;BME280;28444;48.056;14.408;2022-10-18T02:20:47;98584.03;;;10.08;100.00
38912;BME280;28444;48.056;14.408;2022-10-18T02:23:16;98590.38;;;10.03;100.00
38912;BME280;28444;48.056;14.408;2022-10-18T02:25:46;98587.59;;;9.95;100.00
38912;BME280;28444;48.056;14.408;2022-10-18T02:28:13;98593.78;;;9.96;100.00
38912;BME280;28444;48.056;14.408;2022-10-18T02:30:46;98600.50;;;9.95;100.00
38912;BME280;28444;48.056;14.408;2022-10-18T02:33:24;98604.81;;;9.90;100.00
38912;BME280;28444;48.056;14.408;2022-10-18T02:35:58;98607.38;;;9.88;100.00
38912;BME280;28444;48.056;14.408;2022-10-18T02:38:29;98615.91;;;9.84;100.00
38912;BME280;28444;48.056;14.408;2022-10-18T02:40:57;98621.63;;;9.73;100.00
38912;BME280;28444;48.056;14.408;2022-10-18T02:43:24;98627.59;;;9.37;100.00
38912;BME280;28444;48.056;14.408;2022-10-18T02:45:51;98627.50;;;9.30;100.00
38912;BME280;28444;48.056;14.408;2022-10-18T02:48:17;98626.56;;;9.27;100.00
38912;BME280;28444;48.056;14.408;2022-10-18T02:50:44;98619.09;;;9.28;100.00
38912;BME280;28444;48.056;14.408;2022-10-18T02:53:11;98618.78;;;9.31;100.00
38912;BME280;28444;48.056;14.408;2022-10-18T02:55:37;98611.41;;;9.39;100.00
38912;BME280;28444;48.056;14.408;2022-10-18T02:58:04;98611.63;;;9.42;100.00
38912;BME280;28444;48.056;14.408;2022-10-18T03:00:31;98611.94;;;9.38;100.00
38912;BME280;28444;48.056;14.408;2022-10-18T03:02:57;98616.13;;;9.39;100.00
38912;BME280;28444;48.056;14.408;2022-10-18T03:05:24;98618.53;;;9.43;100.00
38912;BME280;28444;48.056;14.408;2022-10-18T03:07:51;98612.28;;;9.34;100.00
38912;BME280;28444;48.056;14.408;2022-10-18T03:10:18;98619.91;;;9.36;100.00
38912;BME280;28444;48.056;14.408;2022-10-18T03:12:45;98620.66;;;9.36;100.00
38912;BME280;28444;48.056;14.408;2022-10-18T03:15:12;98618.13;;;9.38;100.00
38912;BME280;28444;48.056;14.408;2022-10-18T03:17:38;98614.59;;;9.30;100.00
38912;BME280;28444;48.056;14.408;2022-10-18T03:20:05;98610.19;;;9.27;100.00
38912;BME280;28444;48.056;14.408;2022-10-18T03:22:32;98613.31;;;9.31;100.00
38912;BME280;28444;48.056;14.408;2022-10-18T03:24:59;98616.78;;;9.32;100.00
38912;BME280;28444;48.056;14.408;2022-10-18T03:27:25;98625.69;;;9.32;100.00
38912;BME280;28444;48.056;14.408;2022-10-18T03:29:52;98634.97;;;9.16;100.00
38912;BME280;28444;48.056;14.408;2022-10-18T03:32:19;98626.47;;;9.06;100.00
38912;BME280;28444;48.056;14.408;2022-10-18T03:34:45;98628.69;;;9.08;100.00
38912;BME280;28444;48.056;14.408;2022-10-18T03:37:12;98630.97;;;9.04;100.00
38912;BME280;28444;48.056;14.408;2022-10-18T03:39:38;98632.06;;;9.01;100.00
38912;BME280;28444;48.056;14.408;2022-10-18T03:42:05;98627.00;;;9.05;100.00
38912;BME280;28444;48.056;14.408;2022-10-18T03:44:32;98623.44;;;9.10;100.00
38912;BME280;28444;48.056;14.408;2022-10-18T03:46:58;98625.97;;;9.08;100.00
38912;BME280;28444;48.056;14.408;2022-10-18T03:49:25;98628.69;;;9.08;100.00
38912;BME280;28444;48.056;14.408;2022-10-18T03:51:51;98627.75;;;9.05;100.00
38912;BME280;28444;48.056;14.408;2022-10-18T03:54:18;98629.53;;;9.03;100.00
38912;BME280;28444;48.056;14.408;2022-10-18T03:56:45;98629.00;;;9.04;100.00
38912;BME280;28444;48.056;14.408;2022-10-18T03:59:11;98640.13;;;9.06;100.00
38912;BME280;28444;48.056;14.408;2022-10-18T04:01:38;98642.84;;;9.06;100.00
38912;BME280;28444;48.056;14.408;2022-10-18T04:04:05;98645.06;;;9.08;100.00
38912;BME280;28444;48.056;14.408;2022-10-18T04:06:32;98641.06;;;9.09;100.00
38912;BME280;28444;48.056;14.408;2022-10-18T04:08:59;98638.75;;;9.13;100.00
38912;BME280;28444;48.056;14.408;2022-10-18T04:11:25;98633.50;;;9.15;100.00
38912;BME280;28444;48.056;14.408;2022-10-18T04:13:52;98636.44;;;9.17;100.00
38912;BME280;28444;48.056;14.408;2022-10-18T04:16:18;98629.53;;;9.16;100.00
38912;BME280;28444;48.056;14.408;2022-10-18T04:18:45;98633.28;;;9.13;100.00
38912;BME280;28444;48.056;14.408;2022-10-18T04:21:12;98632.44;;;9.18;100.00
38912;BME280;28444;48.056;14.408;2022-10-18T04:23:39;98625.94;;;9.21;100.00
38912;BME280;28444;48.056;14.408;2022-10-18T04:26:06;98628.56;;;9.27;100.00
38912;BME280;28444;48.056;14.408;2022-10-18T04:28:33;98629.06;;;9.25;100.00
38912;BME280;28444;48.056;14.408;2022-10-18T04:31:01;98631.81;;;9.25;100.00
38912;BME280;28444;48.056;14.408;2022-10-18T04:33:27;98625.75;;;9.19;100.00
38912;BME280;28444;48.056;14.408;2022-10-18T04:35:54;98626.16;;;9.23;100.00
38912;BME280;28444;48.056;14.408;2022-10-18T04:38:20;98625.84;;;9.27;100.00
38912;BME280;28444;48.056;14.408;2022-10-18T04:40:47;98623.50;;;9.31;100.00
38912;BME280;28444;48.056;14.408;2022-10-18T04:43:14;98633.88;;;9.32;100.00
38912;BME280;28444;48.056;14.408;2022-10-18T04:45:43;98633.47;;;9.28;100.00
38912;BME280;28444;48.056;14.408;2022-10-18T04:48:10;98626.16;;;9.23;100.00
38912;BME280;28444;48.056;14.408;2022-10-18T04:50:37;98628.47;;;9.19;100.00
38912;BME280;28444;48.056;14.408;2022-10-18T04:53:03;98628.16;;;9.09;100.00
38912;BME280;28444;48.056;14.408;2022-10-18T04:55:30;98624.28;;;9.05;100.00
38912;BME280;28444;48.056;14.408;2022-10-18T04:57:57;98628.25;;;9.04;100.00
38912;BME280;28444;48.056;14.408;2022-10-18T05:00:23;98633.19;;;9.05;100.00
38912;BME280;28444;48.056;14.408;2022-10-18T05:02:57;98626.69;;;9.08;100.00
38912;BME280;28444;48.056;14.408;2022-10-18T05:05:24;98627.94;;;9.07;100.00
38912;BME280;28444;48.056;14.408;2022-10-18T05:08:11;98630.16;;;8.69;100.00
38912;BME280;28444;48.056;14.408;2022-10-18T05:10:38;98632.34;;;8.57;100.00
38912;BME280;28444;48.056;14.408;2022-10-18T05:13:04;98624.50;;;8.54;100.00
38912;BME280;28444;48.056;14.408;2022-10-18T05:15:31;98625.53;;;8.51;100.00
38912;BME280;28444;48.056;14.408;2022-10-18T05:17:58;98619.47;;;8.58;100.00
38912;BME280;28444;48.056;14.408;2022-10-18T05:20:24;98621.44;;;8.57;100.00
38912;BME280;28444;48.056;14.408;2022-10-18T05:22:51;98624.38;;;8.46;100.00
38912;BME280;28444;48.056;14.408;2022-10-18T05:25:18;98616.50;;;8.42;100.00
38912;BME280;28444;48.056;14.408;2022-10-18T05:27:44;98609.13;;;8.37;100.00
38912;BME280;28444;48.056;14.408;2022-10-18T05:30:11;98607.97;;;8.33;100.00
38912;BME280;28444;48.056;14.408;2022-10-18T05:32:38;98613.56;;;8.40;100.00
38912;BME280;28444;48.056;14.408;2022-10-18T05:35:05;98616.88;;;8.33;100.00
38912;BME280;28444;48.056;14.408;2022-10-18T05:37:32;98609.38;;;8.20;100.00
38912;BME280;28444;48.056;14.408;2022-10-18T05:39:58;98612.00;;;8.13;100.00
38912;BME280;28444;48.056;14.408;2022-10-18T05:42:25;98623.72;;;8.08;100.00
38912;BME280;28444;48.056;14.408;2022-10-18T05:44:52;98613.44;;;8.01;100.00
38912;BME280;28444;48.056;14.408;2022-10-18T05:47:18;98612.56;;;7.92;100.00
38912;BME280;28444;48.056;14.408;2022-10-18T05:49:47;98605.31;;;7.82;100.00
38912;BME280;28444;48.056;14.408;2022-10-18T05:52:13;98607.50;;;7.83;100.00
38912;BME280;28444;48.056;14.408;2022-10-18T05:54:40;98604.47;;;7.87;100.00
38912;BME280;28444;48.056;14.408;2022-10-18T05:57:07;98613.19;;;7.99;100.00
38912;BME280;28444;48.056;14.408;2022-10-18T05:59:33;98621.91;;;7.97;100.00
38912;BME280;28444;48.056;14.408;2022-10-18T06:02:00;98612.03;;;7.94;100.00
38912;BME280;28444;48.056;14.408;2022-10-18T06:04:27;98625.97;;;7.90;100.00
38912;BME280;28444;48.056;14.408;2022-10-18T06:06:53;98632.38;;;7.93;100.00
38912;BME280;28444;48.056;14.408;2022-10-18T06:09:21;98629.47;;;8.04;100.00
38912;BME280;28444;48.056;14.408;2022-10-18T06:11:48;98626.03;;;8.04;100.00
38912;BME280;28444;48.056;14.408;2022-10-18T06:14:14;98624.44;;;8.08;100.00
38912;BME280;28444;48.056;14.408;2022-10-18T06:16:41;98626.38;;;8.13;100.00
38912;BME280;28444;48.056;14.408;2022-10-18T06:19:08;98625.00;;;8.20;100.00
38912;BME280;28444;48.056;14.408;2022-10-18T06:21:34;98623.59;;;8.32;100.00
38912;BME280;28444;48.056;14.408;2022-10-18T06:24:01;98629.03;;;8.32;100.00
38912;BME280;28444;48.056;14.408;2022-10-18T06:26:28;98628.50;;;8.34;100.00
38912;BME280;28444;48.056;14.408;2022-10-18T06:28:54;98624.22;;;8.38;100.00
38912;BME280;28444;48.056;14.408;2022-10-18T06:31:21;98620.13;;;8.32;100.00
38912;BME280;28444;48.056;14.408;2022-10-18T06:33:48;98615.19;;;8.30;100.00
38912;BME280;28444;48.056;14.408;2022-10-18T06:36:17;98618.31;;;8.34;100.00
38912;BME280;28444;48.056;14.408;2022-10-18T06:38:44;98620.03;;;8.37;100.00
38912;BME280;28444;48.056;14.408;2022-10-18T06:41:11;98624.31;;;8.33;100.00
38912;BME280;28444;48.056;14.408;2022-10-18T06:43:38;98627.78;;;8.33;100.00
38912;BME280;28444;48.056;14.408;2022-10-18T06:46:06;98628.31;;;8.32;100.00
38912;BME280;28444;48.056;14.408;2022-10-18T06:48:35;98632.19;;;8.36;100.00
38912;BME280;28444;48.056;14.408;2022-10-18T06:51:04;98632.91;;;8.37;100.00
38912;BME280;28444;48.056;14.408;2022-10-18T06:53:36;98639.53;;;8.41;100.00
38912;BME280;28444;48.056;14.408;2022-10-18T06:56:18;98646.03;;;8.38;100.00
38912;BME280;28444;48.056;14.408;2022-10-18T06:58:45;98642.28;;;8.41;100.00
38912;BME280;28444;48.056;14.408;2022-10-18T07:01:14;98644.06;;;8.52;100.00
38912;BME280;28444;48.056;14.408;2022-10-18T07:03:42;98645.69;;;8.61;100.00
38912;BME280;28444;48.056;14.408;2022-10-18T07:06:10;98647.97;;;8.70;100.00
38912;BME280;28444;48.056;14.408;2022-10-18T07:08:38;98637.50;;;8.74;100.00
38912;BME280;28444;48.056;14.408;2022-10-18T07:11:06;98641.28;;;8.84;100.00
38912;BME280;28444;48.056;14.408;2022-10-18T07:13:34;98636.16;;;8.94;100.00
38912;BME280;28444;48.056;14.408;2022-10-18T07:16:14;98648.44;;;9.01;100.00
38912;BME280;28444;48.056;14.408;2022-10-18T07:18:49;98650.53;;;8.95;100.00
38912;BME280;28444;48.056;14.408;2022-10-18T07:21:19;98647.56;;;8.92;100.00
38912;BME280;28444;48.056;14.408;2022-10-18T07:23:46;98651.25;;;8.95;100.00
38912;BME280;28444;48.056;14.408;2022-10-18T07:26:22;98664.78;;;8.87;100.00
38912;BME280;28444;48.056;14.408;2022-10-18T07:28:52;98660.81;;;8.75;100.00
38912;BME280;28444;48.056;14.408;2022-10-18T07:31:21;98661.22;;;8.79;100.00
38912;BME280;28444;48.056;14.408;2022-10-18T07:33:48;98674.44;;;8.88;100.00
38912;BME280;28444;48.056;14.408;2022-10-18T07:36:15;98662.88;;;8.96;100.00
38912;BME280;28444;48.056;14.408;2022-10-18T07:38:41;98664.25;;;9.02;100.00
38912;BME280;28444;48.056;14.408;2022-10-18T07:41:10;98670.88;;;9.07;100.00
38912;BME280;28444;48.056;14.408;2022-10-18T07:43:41;98664.47;;;9.18;100.00
38912;BME280;28444;48.056;14.408;2022-10-18T07:46:08;98669.50;;;9.27;100.00
38912;BME280;28444;48.056;14.408;2022-10-18T07:48:35;98655.94;;;9.34;100.00
38912;BME280;28444;48.056;14.408;2022-10-18T07:51:03;98656.66;;;9.48;100.00
38912;BME280;28444;48.056;14.408;2022-10-18T07:53:30;98666.63;;;9.59;100.00
38912;BME280;28444;48.056;14.408;2022-10-18T07:56:01;98662.69;;;9.68;100.00
38912;BME280;28444;48.056;14.408;2022-10-18T07:58:34;98659.88;;;9.60;100.00
38912;BME280;28444;48.056;14.408;2022-10-18T08:01:04;98658.44;;;9.59;100.00
38912;BME280;28444;48.056;14.408;2022-10-18T08:03:32;98663.09;;;9.72;100.00
38912;BME280;28444;48.056;14.408;2022-10-18T08:05:58;98662.84;;;9.83;100.00
38912;BME280;28444;48.056;14.408;2022-10-18T08:08:26;98653.00;;;9.80;100.00
38912;BME280;28444;48.056;14.408;2022-10-18T08:10:53;98651.53;;;9.79;100.00
38912;BME280;28444;48.056;14.408;2022-10-18T08:13:20;98654.34;;;9.86;100.00
38912;BME280;28444;48.056;14.408;2022-10-18T08:15:47;98656.56;;;9.88;100.00
38912;BME280;28444;48.056;14.408;2022-10-18T08:18:13;98661.47;;;9.89;100.00
38912;BME280;28444;48.056;14.408;2022-10-18T08:20:43;98660.81;;;9.97;100.00
38912;BME280;28444;48.056;14.408;2022-10-18T08:23:11;98667.28;;;10.07;100.00
38912;BME280;28444;48.056;14.408;2022-10-18T08:25:37;98666.34;;;10.04;100.00
38912;BME280;28444;48.056;14.408;2022-10-18T08:28:04;98664.97;;;10.11;100.00
38912;BME280;28444;48.056;14.408;2022-10-18T08:30:32;98669.13;;;10.25;100.00
38912;BME280;28444;48.056;14.408;2022-10-18T08:32:59;98663.72;;;10.33;100.00
38912;BME280;28444;48.056;14.408;2022-10-18T08:35:26;98667.13;;;10.47;100.00
38912;BME280;28444;48.056;14.408;2022-10-18T08:37:52;98664.84;;;10.58;100.00
38912;BME280;28444;48.056;14.408;2022-10-18T08:40:19;98671.75;;;10.80;100.00
38912;BME280;28444;48.056;14.408;2022-10-18T08:45:36;98671.09;;;10.95;100.00
38912;BME280;28444;48.056;14.408;2022-10-18T08:48:17;98664.25;;;11.09;100.00
38912;BME280;28444;48.056;14.408;2022-10-18T08:50:48;98663.22;;;11.20;100.00
38912;BME280;28444;48.056;14.408;2022-10-18T08:53:22;98665.50;;;11.37;100.00
38912;BME280;28444;48.056;14.408;2022-10-18T08:56:31;98655.47;;;11.47;100.00
38912;BME280;28444;48.056;14.408;2022-10-18T08:58:51;98653.16;;;11.59;100.00
38912;BME280;28444;48.056;14.408;2022-10-18T09:04:50;98657.75;;;11.64;100.00
38912;BME280;28444;48.056;14.408;2022-10-18T09:10:19;98653.03;;;11.80;100.00
38912;BME280;28444;48.056;14.408;2022-10-18T09:13:28;98650.72;;;11.92;100.00
38912;BME280;28444;48.056;14.408;2022-10-18T09:16:06;98654.41;;;12.02;100.00
38912;BME280;28444;48.056;14.408;2022-10-18T09:19:48;98661.91;;;12.09;100.00
38912;BME280;28444;48.056;14.408;2022-10-18T09:21:54;98653.84;;;12.19;100.00
38912;BME280;28444;48.056;14.408;2022-10-18T09:24:43;98651.69;;;12.25;100.00
38912;BME280;28444;48.056;14.408;2022-10-18T09:27:18;98655.50;;;12.29;100.00
38912;BME280;28444;48.056;14.408;2022-10-18T09:30:25;98644.72;;;12.39;100.00
38912;BME280;28444;48.056;14.408;2022-10-18T09:33:22;98647.47;;;12.47;100.00
38912;BME280;28444;48.056;14.408;2022-10-18T09:35:55;98649.13;;;12.58;100.00
38912;BME280;28444;48.056;14.408;2022-10-18T09:38:26;98649.81;;;12.73;100.00
38912;BME280;28444;48.056;14.408;2022-10-18T09:41:06;98643.94;;;12.85;100.00
38912;BME280;28444;48.056;14.408;2022-10-18T09:43:46;98643.19;;;12.92;100.00
38912;BME280;28444;48.056;14.408;2022-10-18T09:46:16;98647.53;;;13.10;100.00
38912;BME280;28444;48.056;14.408;2022-10-18T09:49:05;98641.88;;;13.16;100.00
38912;BME280;28444;48.056;14.408;2022-10-18T09:51:42;98649.34;;;13.23;100.00
38912;BME280;28444;48.056;14.408;2022-10-18T09:54:31;98651.69;;;13.42;100.00
38912;BME280;28444;48.056;14.408;2022-10-18T09:57:21;98649.13;;;13.44;100.00
38912;BME280;28444;48.056;14.408;2022-10-18T09:59:49;98652.22;;;13.48;100.00
38912;BME280;28444;48.056;14.408;2022-10-18T10:02:21;98648.50;;;13.53;100.00
38912;BME280;28444;48.056;14.408;2022-10-18T10:04:49;98647.94;;;13.62;99.96
38912;BME280;28444;48.056;14.408;2022-10-18T10:07:18;98648.81;;;13.65;100.00
38912;BME280;28444;48.056;14.408;2022-10-18T10:09:57;98642.06;;;13.66;99.11
38912;BME280;28444;48.056;14.408;2022-10-18T10:12:27;98638.19;;;13.69;98.93
38912;BME280;28444;48.056;14.408;2022-10-18T10:15:12;98641.25;;;13.81;97.58
38912;BME280;28444;48.056;14.408;2022-10-18T10:17:42;98638.25;;;13.86;96.94
38912;BME280;28444;48.056;14.408;2022-10-18T10:20:29;98639.91;;;13.89;97.42
38912;BME280;28444;48.056;14.408;2022-10-18T10:23:46;98627.22;;;13.94;97.29
38912;BME280;28444;48.056;14.408;2022-10-18T10:26:27;98622.91;;;14.08;96.99
38912;BME280;28444;48.056;14.408;2022-10-18T10:28:55;98613.31;;;14.17;95.84
38912;BME280;28444;48.056;14.408;2022-10-18T10:31:30;98609.22;;;14.26;96.79
38912;BME280;28444;48.056;14.408;2022-10-18T10:33:59;98606.44;;;14.26;96.09
38912;BME280;28444;48.056;14.408;2022-10-18T10:36:27;98610.25;;;14.30;96.09
38912;BME280;28444;48.056;14.408;2022-10-18T10:39:24;98606.50;;;14.43;95.92
38912;BME280;28444;48.056;14.408;2022-10-18T10:41:57;98610.59;;;14.59;94.52
38912;BME280;28444;48.056;14.408;2022-10-18T10:44:29;98610.47;;;14.75;93.05
38912;BME280;28444;48.056;14.408;2022-10-18T10:46:57;98604.53;;;14.78;92.78
38912;BME280;28444;48.056;14.408;2022-10-18T10:49:28;98611.41;;;14.87;92.80
38912;BME280;28444;48.056;14.408;2022-10-18T10:52:16;98599.28;;;15.07;91.29
38912;BME280;28444;48.056;14.408;2022-10-18T10:54:59;98597.88;;;15.16;88.91
38912;BME280;28444;48.056;14.408;2022-10-18T10:57:49;98591.53;;;15.23;89.31
38912;BME280;28444;48.056;14.408;2022-10-18T11:00:53;98593.88;;;15.27;90.24
38912;BME280;28444;48.056;14.408;2022-10-18T11:03:21;98584.59;;;15.49;88.15
38912;BME280;28444;48.056;14.408;2022-10-18T11:05:56;98587.13;;;15.64;86.33
38912;BME280;28444;48.056;14.408;2022-10-18T11:08:33;98572.91;;;15.58;87.38
38912;BME280;28444;48.056;14.408;2022-10-18T11:11:14;98576.94;;;15.57;88.37
38912;BME280;28444;48.056;14.408;2022-10-18T11:13:50;98569.34;;;15.66;89.99
38912;BME280;28444;48.056;14.408;2022-10-18T11:16:50;98570.06;;;15.66;87.74
38912;BME280;28444;48.056;14.408;2022-10-18T11:22:24;98565.75;;;15.73;88.89
38912;BME280;28444;48.056;14.408;2022-10-18T11:24:53;98559.66;;;15.74;87.86
38912;BME280;28444;48.056;14.408;2022-10-18T11:27:35;98558.38;;;15.85;89.85
38912;BME280;28444;48.056;14.408;2022-10-18T11:30:40;98556.94;;;15.94;86.55
38912;BME280;28444;48.056;14.408;2022-10-18T11:37:29;98551.06;;;16.07;86.33
38912;BME280;28444;48.056;14.408;2022-10-18T11:40:26;98560.09;;;16.17;86.71
38912;BME280;28444;48.056;14.408;2022-10-18T11:46:32;98552.44;;;16.35;86.92
38912;BME280;28444;48.056;14.408;2022-10-18T11:52:27;98550.41;;;16.55;85.92
38912;BME280;28444;48.056;14.408;2022-10-18T11:55:28;98550.25;;;16.63;84.64
38912;BME280;28444;48.056;14.408;2022-10-18T11:58:32;98544.16;;;16.64;85.91
38912;BME280;28444;48.056;14.408;2022-10-18T12:01:23;98529.78;;;16.56;84.65
38912;BME280;28444;48.056;14.408;2022-10-18T12:04:07;98537.47;;;16.48;83.54
38912;BME280;28444;48.056;14.408;2022-10-18T12:06:39;98528.03;;;16.60;85.39
38912;BME280;28444;48.056;14.408;2022-10-18T12:09:22;98524.84;;;16.64;85.60
38912;BME280;28444;48.056;14.408;2022-10-18T12:11:57;98522.38;;;16.68;86.63
38912;BME280;28444;48.056;14.408;2022-10-18T12:14:34;98527.44;;;16.72;86.39
38912;BME280;28444;48.056;14.408;2022-10-18T12:17:06;98523.81;;;16.69;85.59
38912;BME280;28444;48.056;14.408;2022-10-18T12:20:04;98523.97;;;16.71;85.76
38912;BME280;28444;48.056;14.408;2022-10-18T12:25:44;98516.28;;;16.89;81.96
38912;BME280;28444;48.056;14.408;2022-10-18T12:28:42;98506.97;;;16.84;83.64
38912;BME280;28444;48.056;14.408;2022-10-18T12:31:23;98505.38;;;16.91;84.54
38912;BME280;28444;48.056;14.408;2022-10-18T12:33:55;98499.13;;;17.00;82.82
38912;BME280;28444;48.056;14.408;2022-10-18T12:36:40;98499.50;;;17.06;84.11
38912;BME280;28444;48.056;14.408;2022-10-18T12:39:32;98487.13;;;17.17;82.80
38912;BME280;28444;48.056;14.408;2022-10-18T12:42:27;98489.78;;;17.15;84.97
38912;BME280;28444;48.056;14.408;2022-10-18T12:45:33;98488.91;;;17.13;86.10
38912;BME280;28444;48.056;14.408;2022-10-18T12:48:04;98480.94;;;17.07;86.47
38912;BME280;28444;48.056;14.408;2022-10-18T12:50:39;98481.66;;;17.07;85.14
38912;BME280;28444;48.056;14.408;2022-10-18T12:53:23;98470.28;;;17.13;82.83
38912;BME280;28444;48.056;14.408;2022-10-18T12:55:52;98468.53;;;17.18;84.34
38912;BME280;28444;48.056;14.408;2022-10-18T12:58:29;98473.03;;;17.23;85.14
38912;BME280;28444;48.056;14.408;2022-10-18T13:00:57;98467.50;;;17.23;82.08
38912;BME280;28444;48.056;14.408;2022-10-18T13:03:41;98469.78;;;17.36;81.22
38912;BME280;28444;48.056;14.408;2022-10-18T13:06:15;98457.41;;;17.37;81.75
38912;BME280;28444;48.056;14.408;2022-10-18T13:08:42;98451.59;;;17.33;82.47
38912;BME280;28444;48.056;14.408;2022-10-18T13:11:27;98445.66;;;17.27;81.33
38912;BME280;28444;48.056;14.408;2022-10-18T13:15:04;98450.09;;;17.42;82.09
38912;BME280;28444;48.056;14.408;2022-10-18T13:17:40;98452.56;;;17.47;80.91
38912;BME280;28444;48.056;14.408;2022-10-18T13:20:40;98443.84;;;17.41;82.99
38912;BME280;28444;48.056;14.408;2022-10-18T13:27:35;98447.31;;;17.51;82.75
38912;BME280;28444;48.056;14.408;2022-10-18T13:30:26;98447.31;;;17.51;83.27
38912;BME280;28444;48.056;14.408;2022-10-18T13:33:25;98442.50;;;17.52;83.67
38912;BME280;28444;48.056;14.408;2022-10-18T13:35:56;98437.91;;;17.35;85.35
38912;BME280;28444;48.056;14.408;2022-10-18T13:38:57;98443.06;;;17.19;86.65
38912;BME280;28444;48.056;14.408;2022-10-18T13:44:31;98436.28;;;17.01;88.73
38912;BME280;28444;48.056;14.408;2022-10-18T13:47:35;98434.13;;;16.99;88.24
38912;BME280;28444;48.056;14.408;2022-10-18T13:50:15;98438.59;;;17.04;89.09
38912;BME280;28444;48.056;14.408;2022-10-18T13:53:03;98435.84;;;17.04;89.75
38912;BME280;28444;48.056;14.408;2022-10-18T13:55:51;98436.41;;;17.03;89.22
38912;BME280;28444;48.056;14.408;2022-10-18T13:58:49;98436.75;;;16.97;88.79
38912;BME280;28444;48.056;14.408;2022-10-18T14:05:10;98436.19;;;16.89;90.59
38912;BME280;28444;48.056;14.408;2022-10-18T14:07:51;98425.16;;;16.79;91.43
38912;BME280;28444;48.056;14.408;2022-10-18T14:10:35;98422.38;;;16.70;91.95
38912;BME280;28444;48.056;14.408;2022-10-18T14:13:32;98426.91;;;16.55;91.80
38912;BME280;28444;48.056;14.408;2022-10-18T14:18:46;98429.25;;;16.40;93.48
38912;BME280;28444;48.056;14.408;2022-10-18T14:21:21;98427.06;;;16.38;94.57
38912;BME280;28444;48.056;14.408;2022-10-18T14:23:56;98421.41;;;16.36;94.33